Terminal Aerodrome Forecast
Issued by NWS Caribou, ME

Current Version | Previous Version | Text Only | Print | Product List | Glossary On
Versions: 1 2 3 4 5 6 7 8 9 10 11 12 13 14 15 16 17 18 19 20 21 22 23 24
000
FTUS41 KCAR 310534
TAFCAR
TAF
KCAR 310534Z 3106/0106 33012G24KT 3SM -SN BLSN SCT008 OVC025
      TEMPO 3106/3110 1SM -SN BLSN BKN008 OVC012
     FM311000 34020G30KT 1SM -SN BLSN SCT008 OVC015
     FM312100 34018G28KT 4SM -SN BLSN OVC025
     FM010200 32018G28KT 5SM BLSN SCT025=

USA.gov is the U.S. government's official web portal to all federal, state and local government web resources and services.